sensor_id;sensor_type;location;lat;lon;timestamp;P1;durP1;ratioP1;P2;durP2;ratioP2
27408;SDS011;20413;50.782;7.152;2023-03-01T00:02:16;21.17;;;12.85;;
27408;SDS011;20413;50.782;7.152;2023-03-01T00:04:42;23.15;;;12.63;;
27408;SDS011;20413;50.782;7.152;2023-03-01T00:07:07;21.65;;;11.82;;
27408;SDS011;20413;50.782;7.152;2023-03-01T00:09:33;22.48;;;13.52;;
27408;SDS011;20413;50.782;7.152;2023-03-01T00:12:00;20.48;;;12.90;;
27408;SDS011;20413;50.782;7.152;2023-03-01T00:14:26;19.42;;;12.32;;
27408;SDS011;20413;50.782;7.152;2023-03-01T00:16:51;19.20;;;12.13;;
27408;SDS011;20413;50.782;7.152;2023-03-01T00:19:17;21.25;;;12.57;;
27408;SDS011;20413;50.782;7.152;2023-03-01T00:21:44;21.58;;;11.68;;
27408;SDS011;20413;50.782;7.152;2023-03-01T00:24:10;22.23;;;13.27;;
27408;SDS011;20413;50.782;7.152;2023-03-01T00:26:36;20.65;;;12.18;;
27408;SDS011;20413;50.782;7.152;2023-03-01T00:29:02;19.65;;;12.05;;
27408;SDS011;20413;50.782;7.152;2023-03-01T00:31:29;21.45;;;12.25;;
27408;SDS011;20413;50.782;7.152;2023-03-01T00:33:57;23.23;;;12.75;;
27408;SDS011;20413;50.782;7.152;2023-03-01T00:36:25;18.10;;;12.02;;
27408;SDS011;20413;50.782;7.152;2023-03-01T00:38:55;19.83;;;12.48;;
27408;SDS011;20413;50.782;7.152;2023-03-01T00:41:21;20.23;;;11.95;;
27408;SDS011;20413;50.782;7.152;2023-03-01T00:43:48;20.35;;;12.80;;
27408;SDS011;20413;50.782;7.152;2023-03-01T00:46:15;19.20;;;12.38;;
27408;SDS011;20413;50.782;7.152;2023-03-01T00:48:44;18.95;;;11.43;;
27408;SDS011;20413;50.782;7.152;2023-03-01T00:51:11;20.42;;;12.13;;
27408;SDS011;20413;50.782;7.152;2023-03-01T00:56:04;18.23;;;11.68;;
27408;SDS011;20413;50.782;7.152;2023-03-01T00:58:31;22.42;;;12.23;;
27408;SDS011;20413;50.782;7.152;2023-03-01T01:00:57;18.27;;;11.82;;
27408;SDS011;20413;50.782;7.152;2023-03-01T01:03:23;18.02;;;11.65;;
27408;SDS011;20413;50.782;7.152;2023-03-01T01:05:50;18.98;;;11.38;;
27408;SDS011;20413;50.782;7.152;2023-03-01T01:08:16;19.75;;;12.05;;
27408;SDS011;20413;50.782;7.152;2023-03-01T01:10:43;18.88;;;11.50;;
27408;SDS011;20413;50.782;7.152;2023-03-01T01:13:09;19.58;;;11.57;;
27408;SDS011;20413;50.782;7.152;2023-03-01T01:15:35;18.13;;;10.95;;
27408;SDS011;20413;50.782;7.152;2023-03-01T01:18:01;17.08;;;11.65;;
27408;SDS011;20413;50.782;7.152;2023-03-01T01:20:27;17.38;;;11.32;;
27408;SDS011;20413;50.782;7.152;2023-03-01T01:22:52;18.08;;;12.02;;
27408;SDS011;20413;50.782;7.152;2023-03-01T01:25:18;17.50;;;12.10;;
27408;SDS011;20413;50.782;7.152;2023-03-01T01:27:44;20.05;;;11.98;;
27408;SDS011;20413;50.782;7.152;2023-03-01T01:30:10;21.85;;;11.93;;
27408;SDS011;20413;50.782;7.152;2023-03-01T01:32:36;19.92;;;12.77;;
27408;SDS011;20413;50.782;7.152;2023-03-01T01:35:01;20.52;;;12.80;;
27408;SDS011;20413;50.782;7.152;2023-03-01T01:37:27;25.85;;;12.80;;
27408;SDS011;20413;50.782;7.152;2023-03-01T01:39:56;18.95;;;12.25;;
27408;SDS011;20413;50.782;7.152;2023-03-01T01:45:15;20.38;;;12.88;;
27408;SDS011;20413;50.782;7.152;2023-03-01T01:48:06;19.13;;;12.38;;
27408;SDS011;20413;50.782;7.152;2023-03-01T01:50:38;19.35;;;12.27;;
27408;SDS011;20413;50.782;7.152;2023-03-01T01:53:09;20.67;;;12.43;;
27408;SDS011;20413;50.782;7.152;2023-03-01T01:55:42;21.10;;;12.40;;
27408;SDS011;20413;50.782;7.152;2023-03-01T01:58:13;19.48;;;11.80;;
27408;SDS011;20413;50.782;7.152;2023-03-01T02:00:42;21.80;;;12.80;;
27408;SDS011;20413;50.782;7.152;2023-03-01T02:03:10;19.08;;;12.85;;
27408;SDS011;20413;50.782;7.152;2023-03-01T02:08:27;19.25;;;12.23;;
27408;SDS011;20413;50.782;7.152;2023-03-01T02:10:55;20.50;;;12.35;;
27408;SDS011;20413;50.782;7.152;2023-03-01T02:13:22;22.75;;;12.73;;
27408;SDS011;20413;50.782;7.152;2023-03-01T02:15:48;19.63;;;12.63;;
27408;SDS011;20413;50.782;7.152;2023-03-01T02:18:14;24.63;;;13.52;;
27408;SDS011;20413;50.782;7.152;2023-03-01T02:23:27;22.27;;;13.65;;
27408;SDS011;20413;50.782;7.152;2023-03-01T02:28:37;20.63;;;13.25;;
27408;SDS011;20413;50.782;7.152;2023-03-01T02:31:06;19.83;;;12.80;;
27408;SDS011;20413;50.782;7.152;2023-03-01T02:33:51;23.83;;;13.75;;
27408;SDS011;20413;50.782;7.152;2023-03-01T02:36:25;22.52;;;12.45;;
27408;SDS011;20413;50.782;7.152;2023-03-01T02:38:56;23.33;;;12.70;;
27408;SDS011;20413;50.782;7.152;2023-03-01T02:41:23;20.23;;;13.15;;
27408;SDS011;20413;50.782;7.152;2023-03-01T02:43:51;19.88;;;13.02;;
27408;SDS011;20413;50.782;7.152;2023-03-01T02:46:18;19.10;;;12.75;;
27408;SDS011;20413;50.782;7.152;2023-03-01T02:48:49;18.67;;;12.68;;
27408;SDS011;20413;50.782;7.152;2023-03-01T02:51:27;21.65;;;12.30;;
27408;SDS011;20413;50.782;7.152;2023-03-01T02:54:05;20.67;;;12.80;;
27408;SDS011;20413;50.782;7.152;2023-03-01T02:56:36;20.17;;;13.30;;
27408;SDS011;20413;50.782;7.152;2023-03-01T02:59:02;19.65;;;12.70;;
27408;SDS011;20413;50.782;7.152;2023-03-01T03:01:28;17.48;;;11.82;;
27408;SDS011;20413;50.782;7.152;2023-03-01T03:04:02;21.35;;;12.95;;
27408;SDS011;20413;50.782;7.152;2023-03-01T03:06:32;20.52;;;12.65;;
27408;SDS011;20413;50.782;7.152;2023-03-01T03:08:57;19.67;;;12.73;;
27408;SDS011;20413;50.782;7.152;2023-03-01T03:11:23;18.00;;;12.45;;
27408;SDS011;20413;50.782;7.152;2023-03-01T03:13:49;21.63;;;13.32;;
27408;SDS011;20413;50.782;7.152;2023-03-01T03:16:15;20.35;;;12.55;;
27408;SDS011;20413;50.782;7.152;2023-03-01T03:18:40;19.58;;;12.57;;
27408;SDS011;20413;50.782;7.152;2023-03-01T03:21:09;20.40;;;12.57;;
27408;SDS011;20413;50.782;7.152;2023-03-01T03:23:36;20.13;;;13.05;;
27408;SDS011;20413;50.782;7.152;2023-03-01T03:26:03;18.65;;;12.68;;
27408;SDS011;20413;50.782;7.152;2023-03-01T03:28:30;16.27;;;10.23;;
27408;SDS011;20413;50.782;7.152;2023-03-01T03:30:57;20.20;;;13.43;;
27408;SDS011;20413;50.782;7.152;2023-03-01T03:33:23;24.90;;;14.13;;
27408;SDS011;20413;50.782;7.152;2023-03-01T03:35:49;24.30;;;13.00;;
27408;SDS011;20413;50.782;7.152;2023-03-01T03:38:16;19.55;;;13.02;;
27408;SDS011;20413;50.782;7.152;2023-03-01T03:43:32;21.40;;;13.48;;
27408;SDS011;20413;50.782;7.152;2023-03-01T03:45:59;20.27;;;12.45;;
27408;SDS011;20413;50.782;7.152;2023-03-01T03:48:26;20.30;;;12.57;;
27408;SDS011;20413;50.782;7.152;2023-03-01T03:50:53;23.90;;;13.38;;
27408;SDS011;20413;50.782;7.152;2023-03-01T03:55:45;22.08;;;13.52;;
27408;SDS011;20413;50.782;7.152;2023-03-01T03:58:14;23.73;;;14.10;;
27408;SDS011;20413;50.782;7.152;2023-03-01T04:00:44;20.13;;;13.02;;
27408;SDS011;20413;50.782;7.152;2023-03-01T04:03:11;19.65;;;12.98;;
27408;SDS011;20413;50.782;7.152;2023-03-01T04:05:38;20.83;;;12.90;;
27408;SDS011;20413;50.782;7.152;2023-03-01T04:08:05;19.63;;;13.40;;
27408;SDS011;20413;50.782;7.152;2023-03-01T04:10:37;20.65;;;13.15;;
27408;SDS011;20413;50.782;7.152;2023-03-01T04:13:05;20.42;;;13.02;;
27408;SDS011;20413;50.782;7.152;2023-03-01T04:15:32;20.67;;;12.73;;
27408;SDS011;20413;50.782;7.152;2023-03-01T04:17:59;20.27;;;12.70;;
27408;SDS011;20413;50.782;7.152;2023-03-01T04:20:26;20.25;;;12.68;;
27408;SDS011;20413;50.782;7.152;2023-03-01T04:23:01;21.73;;;12.85;;
27408;SDS011;20413;50.782;7.152;2023-03-01T04:25:41;24.67;;;14.25;;
27408;SDS011;20413;50.782;7.152;2023-03-01T04:28:29;20.65;;;12.30;;
27408;SDS011;20413;50.782;7.152;2023-03-01T04:30:56;23.02;;;12.15;;
27408;SDS011;20413;50.782;7.152;2023-03-01T04:33:23;23.08;;;14.25;;
27408;SDS011;20413;50.782;7.152;2023-03-01T04:35:50;16.05;;;10.15;;
27408;SDS011;20413;50.782;7.152;2023-03-01T04:38:16;24.58;;;13.63;;
27408;SDS011;20413;50.782;7.152;2023-03-01T04:40:43;20.85;;;13.55;;
27408;SDS011;20413;50.782;7.152;2023-03-01T04:43:09;19.85;;;12.45;;
27408;SDS011;20413;50.782;7.152;2023-03-01T04:45:35;15.30;;;9.85;;
27408;SDS011;20413;50.782;7.152;2023-03-01T04:48:01;22.83;;;13.30;;
27408;SDS011;20413;50.782;7.152;2023-03-01T04:50:28;19.60;;;12.48;;
27408;SDS011;20413;50.782;7.152;2023-03-01T04:52:53;20.85;;;13.18;;
27408;SDS011;20413;50.782;7.152;2023-03-01T04:55:23;22.65;;;12.63;;
27408;SDS011;20413;50.782;7.152;2023-03-01T04:57:52;25.48;;;13.50;;
27408;SDS011;20413;50.782;7.152;2023-03-01T05:00:18;21.92;;;13.55;;
27408;SDS011;20413;50.782;7.152;2023-03-01T05:02:48;20.45;;;12.80;;
27408;SDS011;20413;50.782;7.152;2023-03-01T05:05:18;21.70;;;13.05;;
27408;SDS011;20413;50.782;7.152;2023-03-01T05:07:45;23.40;;;14.10;;
27408;SDS011;20413;50.782;7.152;2023-03-01T05:10:11;22.13;;;13.15;;
27408;SDS011;20413;50.782;7.152;2023-03-01T05:12:36;19.27;;;12.52;;
27408;SDS011;20413;50.782;7.152;2023-03-01T05:15:02;22.88;;;13.68;;
27408;SDS011;20413;50.782;7.152;2023-03-01T05:17:31;21.95;;;13.25;;
27408;SDS011;20413;50.782;7.152;2023-03-01T05:19:58;22.77;;;13.27;;
27408;SDS011;20413;50.782;7.152;2023-03-01T05:22:24;19.63;;;13.05;;
27408;SDS011;20413;50.782;7.152;2023-03-01T05:24:50;21.67;;;13.38;;
27408;SDS011;20413;50.782;7.152;2023-03-01T05:27:15;19.90;;;13.23;;
27408;SDS011;20413;50.782;7.152;2023-03-01T05:29:41;22.08;;;13.73;;
27408;SDS011;20413;50.782;7.152;2023-03-01T05:32:07;22.00;;;12.55;;
27408;SDS011;20413;50.782;7.152;2023-03-01T05:34:34;21.35;;;14.13;;
27408;SDS011;20413;50.782;7.152;2023-03-01T05:37:00;15.13;;;9.85;;
27408;SDS011;20413;50.782;7.152;2023-03-01T05:39:27;25.27;;;14.05;;
27408;SDS011;20413;50.782;7.152;2023-03-01T05:41:55;20.67;;;13.57;;
27408;SDS011;20413;50.782;7.152;2023-03-01T05:44:22;20.27;;;13.80;;
27408;SDS011;20413;50.782;7.152;2023-03-01T05:46:48;23.63;;;14.73;;
27408;SDS011;20413;50.782;7.152;2023-03-01T05:49:14;21.90;;;13.88;;
27408;SDS011;20413;50.782;7.152;2023-03-01T05:51:41;23.45;;;14.27;;
27408;SDS011;20413;50.782;7.152;2023-03-01T05:54:08;22.95;;;11.85;;
27408;SDS011;20413;50.782;7.152;2023-03-01T05:56:34;20.73;;;13.30;;
27408;SDS011;20413;50.782;7.152;2023-03-01T05:59:01;25.13;;;14.23;;
27408;SDS011;20413;50.782;7.152;2023-03-01T06:01:27;22.95;;;12.88;;
27408;SDS011;20413;50.782;7.152;2023-03-01T06:03:54;22.42;;;13.75;;
27408;SDS011;20413;50.782;7.152;2023-03-01T06:06:20;20.35;;;13.30;;
27408;SDS011;20413;50.782;7.152;2023-03-01T06:08:46;22.38;;;14.63;;
27408;SDS011;20413;50.782;7.152;2023-03-01T06:11:12;25.27;;;13.60;;
27408;SDS011;20413;50.782;7.152;2023-03-01T06:13:37;24.05;;;14.07;;
27408;SDS011;20413;50.782;7.152;2023-03-01T06:16:06;25.17;;;14.02;;
27408;SDS011;20413;50.782;7.152;2023-03-01T06:18:32;20.13;;;13.35;;
27408;SDS011;20413;50.782;7.152;2023-03-01T06:20:57;25.17;;;14.93;;
27408;SDS011;20413;50.782;7.152;2023-03-01T06:23:23;23.35;;;14.02;;
27408;SDS011;20413;50.782;7.152;2023-03-01T06:25:50;23.73;;;13.73;;
27408;SDS011;20413;50.782;7.152;2023-03-01T06:28:15;24.27;;;14.13;;
27408;SDS011;20413;50.782;7.152;2023-03-01T06:30:41;27.48;;;15.88;;
27408;SDS011;20413;50.782;7.152;2023-03-01T06:33:07;24.65;;;16.10;;
27408;SDS011;20413;50.782;7.152;2023-03-01T06:35:32;25.73;;;15.93;;
27408;SDS011;20413;50.782;7.152;2023-03-01T06:38:00;24.70;;;15.90;;
27408;SDS011;20413;50.782;7.152;2023-03-01T06:40:27;23.13;;;16.00;;
27408;SDS011;20413;50.782;7.152;2023-03-01T06:42:53;29.65;;;16.58;;
27408;SDS011;20413;50.782;7.152;2023-03-01T06:45:19;28.33;;;16.88;;
27408;SDS011;20413;50.782;7.152;2023-03-01T06:47:45;28.00;;;17.02;;
27408;SDS011;20413;50.782;7.152;2023-03-01T06:50:11;25.63;;;16.67;;
27408;SDS011;20413;50.782;7.152;2023-03-01T06:52:37;30.52;;;17.70;;
27408;SDS011;20413;50.782;7.152;2023-03-01T06:55:03;30.88;;;18.88;;
27408;SDS011;20413;50.782;7.152;2023-03-01T06:57:29;30.15;;;16.42;;
27408;SDS011;20413;50.782;7.152;2023-03-01T06:59:55;24.35;;;15.45;;
27408;SDS011;20413;50.782;7.152;2023-03-01T07:02:21;21.42;;;14.32;;
27408;SDS011;20413;50.782;7.152;2023-03-01T07:04:48;28.52;;;15.52;;
27408;SDS011;20413;50.782;7.152;2023-03-01T07:07:15;22.13;;;14.70;;
27408;SDS011;20413;50.782;7.152;2023-03-01T07:09:43;24.52;;;14.75;;
27408;SDS011;20413;50.782;7.152;2023-03-01T07:12:09;23.75;;;14.65;;
27408;SDS011;20413;50.782;7.152;2023-03-01T07:14:34;24.58;;;14.75;;
27408;SDS011;20413;50.782;7.152;2023-03-01T07:17:00;26.45;;;14.73;;
27408;SDS011;20413;50.782;7.152;2023-03-01T07:19:26;22.40;;;13.55;;
27408;SDS011;20413;50.782;7.152;2023-03-01T07:21:52;21.55;;;14.63;;
27408;SDS011;20413;50.782;7.152;2023-03-01T07:24:17;22.98;;;14.55;;
27408;SDS011;20413;50.782;7.152;2023-03-01T07:26:43;24.88;;;15.07;;
27408;SDS011;20413;50.782;7.152;2023-03-01T07:29:09;23.02;;;14.73;;
27408;SDS011;20413;50.782;7.152;2023-03-01T07:31:35;25.20;;;15.10;;
27408;SDS011;20413;50.782;7.152;2023-03-01T07:34:01;29.33;;;15.98;;
27408;SDS011;20413;50.782;7.152;2023-03-01T07:36:27;24.10;;;14.05;;
27408;SDS011;20413;50.782;7.152;2023-03-01T07:38:53;26.00;;;14.88;;
27408;SDS011;20413;50.782;7.152;2023-03-01T07:41:20;25.23;;;15.35;;
27408;SDS011;20413;50.782;7.152;2023-03-01T07:43:46;30.60;;;15.23;;
27408;SDS011;20413;50.782;7.152;2023-03-01T07:46:11;27.83;;;15.57;;
27408;SDS011;20413;50.782;7.152;2023-03-01T07:48:37;37.72;;;19.15;;
27408;SDS011;20413;50.782;7.152;2023-03-01T07:51:04;31.80;;;16.83;;
27408;SDS011;20413;50.782;7.152;2023-03-01T07:53:31;32.95;;;15.98;;
27408;SDS011;20413;50.782;7.152;2023-03-01T07:56:11;31.98;;;14.85;;
27408;SDS011;20413;50.782;7.152;2023-03-01T07:58:39;29.00;;;16.15;;
27408;SDS011;20413;50.782;7.152;2023-03-01T08:03:32;29.67;;;16.77;;
27408;SDS011;20413;50.782;7.152;2023-03-01T08:05:59;31.58;;;16.75;;
27408;SDS011;20413;50.782;7.152;2023-03-01T08:08:26;31.88;;;16.75;;
27408;SDS011;20413;50.782;7.152;2023-03-01T08:10:51;31.42;;;17.13;;
27408;SDS011;20413;50.782;7.152;2023-03-01T08:13:17;27.88;;;16.58;;
27408;SDS011;20413;50.782;7.152;2023-03-01T08:15:47;28.33;;;17.05;;
27408;SDS011;20413;50.782;7.152;2023-03-01T08:18:14;26.40;;;16.27;;
27408;SDS011;20413;50.782;7.152;2023-03-01T08:20:40;25.58;;;15.68;;
27408;SDS011;20413;50.782;7.152;2023-03-01T08:23:06;23.38;;;15.55;;
27408;SDS011;20413;50.782;7.152;2023-03-01T08:25:31;27.38;;;15.43;;
27408;SDS011;20413;50.782;7.152;2023-03-01T08:27:57;27.35;;;14.98;;
27408;SDS011;20413;50.782;7.152;2023-03-01T08:30:22;26.63;;;14.45;;
27408;SDS011;20413;50.782;7.152;2023-03-01T08:32:48;23.90;;;14.75;;
27408;SDS011;20413;50.782;7.152;2023-03-01T08:35:14;21.55;;;13.95;;
27408;SDS011;20413;50.782;7.152;2023-03-01T08:37:40;25.35;;;12.85;;
27408;SDS011;20413;50.782;7.152;2023-03-01T08:40:06;23.88;;;14.43;;
27408;SDS011;20413;50.782;7.152;2023-03-01T08:42:32;24.10;;;14.27;;
27408;SDS011;20413;50.782;7.152;2023-03-01T08:44:58;22.60;;;13.55;;
27408;SDS011;20413;50.782;7.152;2023-03-01T08:47:24;20.63;;;12.63;;
27408;SDS011;20413;50.782;7.152;2023-03-01T08:49:51;17.55;;;12.30;;
27408;SDS011;20413;50.782;7.152;2023-03-01T08:52:17;17.75;;;12.15;;
27408;SDS011;20413;50.782;7.152;2023-03-01T08:54:43;16.42;;;12.02;;
27408;SDS011;20413;50.782;7.152;2023-03-01T08:57:09;18.80;;;11.93;;
27408;SDS011;20413;50.782;7.152;2023-03-01T08:59:35;17.52;;;12.85;;
27408;SDS011;20413;50.782;7.152;2023-03-01T09:02:02;17.27;;;12.30;;
27408;SDS011;20413;50.782;7.152;2023-03-01T09:04:29;18.92;;;12.43;;
27408;SDS011;20413;50.782;7.152;2023-03-01T09:06:55;26.65;;;13.23;;
27408;SDS011;20413;50.782;7.152;2023-03-01T09:09:21;20.88;;;13.25;;
27408;SDS011;20413;50.782;7.152;2023-03-01T09:11:47;23.42;;;13.70;;
27408;SDS011;20413;50.782;7.152;2023-03-01T09:14:15;20.90;;;14.77;;
27408;SDS011;20413;50.782;7.152;2023-03-01T09:16:41;20.42;;;13.98;;
27408;SDS011;20413;50.782;7.152;2023-03-01T09:19:07;23.70;;;14.63;;
27408;SDS011;20413;50.782;7.152;2023-03-01T09:21:33;26.63;;;14.90;;
27408;SDS011;20413;50.782;7.152;2023-03-01T09:23:59;25.42;;;15.18;;
27408;SDS011;20413;50.782;7.152;2023-03-01T09:26:25;23.70;;;14.73;;
27408;SDS011;20413;50.782;7.152;2023-03-01T09:28:52;23.58;;;14.15;;
27408;SDS011;20413;50.782;7.152;2023-03-01T09:31:19;25.45;;;14.48;;
27408;SDS011;20413;50.782;7.152;2023-03-01T09:33:46;26.48;;;14.82;;
27408;SDS011;20413;50.782;7.152;2023-03-01T09:36:17;29.50;;;15.87;;
27408;SDS011;20413;50.782;7.152;2023-03-01T09:38:44;25.92;;;14.90;;
27408;SDS011;20413;50.782;7.152;2023-03-01T09:41:24;24.38;;;14.65;;
27408;SDS011;20413;50.782;7.152;2023-03-01T09:43:53;21.13;;;14.43;;
27408;SDS011;20413;50.782;7.152;2023-03-01T09:46:23;26.77;;;14.38;;
27408;SDS011;20413;50.782;7.152;2023-03-01T09:48:51;27.38;;;13.02;;
27408;SDS011;20413;50.782;7.152;2023-03-01T09:53:44;18.20;;;11.93;;
27408;SDS011;20413;50.782;7.152;2023-03-01T09:56:16;21.35;;;12.57;;
27408;SDS011;20413;50.782;7.152;2023-03-01T09:58:51;22.23;;;12.63;;
27408;SDS011;20413;50.782;7.152;2023-03-01T10:04:12;22.30;;;12.65;;
27408;SDS011;20413;50.782;7.152;2023-03-01T10:06:45;20.35;;;12.35;;
27408;SDS011;20413;50.782;7.152;2023-03-01T10:09:13;20.55;;;11.57;;
27408;SDS011;20413;50.782;7.152;2023-03-01T10:11:41;20.95;;;12.48;;
27408;SDS011;20413;50.782;7.152;2023-03-01T10:16:55;22.15;;;12.07;;
27408;SDS011;20413;50.782;7.152;2023-03-01T10:21:49;18.17;;;11.15;;
27408;SDS011;20413;50.782;7.152;2023-03-01T10:24:17;20.08;;;11.60;;
27408;SDS011;20413;50.782;7.152;2023-03-01T10:26:56;20.25;;;11.55;;
27408;SDS011;20413;50.782;7.152;2023-03-01T10:29:26;20.88;;;11.35;;
27408;SDS011;20413;50.782;7.152;2023-03-01T10:31:56;16.30;;;11.30;;
27408;SDS011;20413;50.782;7.152;2023-03-01T10:34:33;17.70;;;11.05;;
27408;SDS011;20413;50.782;7.152;2023-03-01T10:37:18;20.85;;;10.13;;
27408;SDS011;20413;50.782;7.152;2023-03-01T10:42:33;17.67;;;9.60;;
27408;SDS011;20413;50.782;7.152;2023-03-01T10:45:41;14.27;;;8.85;;
27408;SDS011;20413;50.782;7.152;2023-03-01T10:47:53;15.90;;;8.73;;
27408;SDS011;20413;50.782;7.152;2023-03-01T10:50:28;16.42;;;9.27;;
27408;SDS011;20413;50.782;7.152;2023-03-01T10:52:56;15.35;;;9.88;;
27408;SDS011;20413;50.782;7.152;2023-03-01T10:55:31;17.83;;;9.63;;
27408;SDS011;20413;50.782;7.152;2023-03-01T10:58:08;12.98;;;8.80;;
27408;SDS011;20413;50.782;7.152;2023-03-01T11:00:45;13.25;;;8.65;;
27408;SDS011;20413;50.782;7.152;2023-03-01T11:03:12;15.07;;;8.82;;
27408;SDS011;20413;50.782;7.152;2023-03-01T11:05:58;14.32;;;7.30;;
27408;SDS011;20413;50.782;7.152;2023-03-01T11:11:04;12.88;;;8.85;;
27408;SDS011;20413;50.782;7.152;2023-03-01T11:13:30;15.27;;;8.68;;
27408;SDS011;20413;50.782;7.152;2023-03-01T11:16:06;14.38;;;9.07;;
27408;SDS011;20413;50.782;7.152;2023-03-01T11:18:33;15.20;;;8.60;;
27408;SDS011;20413;50.782;7.152;2023-03-01T11:20:59;13.85;;;8.23;;
27408;SDS011;20413;50.782;7.152;2023-03-01T11:23:27;16.55;;;8.75;;
27408;SDS011;20413;50.782;7.152;2023-03-01T11:25:55;18.47;;;9.37;;
27408;SDS011;20413;50.782;7.152;2023-03-01T11:28:21;14.40;;;7.88;;
27408;SDS011;20413;50.782;7.152;2023-03-01T11:38:35;14.07;;;8.85;;
27408;SDS011;20413;50.782;7.152;2023-03-01T11:46:11;15.43;;;8.02;;
27408;SDS011;20413;50.782;7.152;2023-03-01T11:48:53;14.30;;;8.98;;
27408;SDS011;20413;50.782;7.152;2023-03-01T11:51:32;14.98;;;9.20;;
27408;SDS011;20413;50.782;7.152;2023-03-01T11:54:18;15.35;;;10.35;;
27408;SDS011;20413;50.782;7.152;2023-03-01T11:56:48;16.95;;;9.38;;
27408;SDS011;20413;50.782;7.152;2023-03-01T11:59:36;16.40;;;9.13;;
27408;SDS011;20413;50.782;7.152;2023-03-01T12:13:08;15.15;;;9.38;;
27408;SDS011;20413;50.782;7.152;2023-03-01T12:15:37;13.05;;;9.52;;
27408;SDS011;20413;50.782;7.152;2023-03-01T12:18:09;12.75;;;8.13;;
27408;SDS011;20413;50.782;7.152;2023-03-01T12:20:51;12.80;;;6.90;;
27408;SDS011;20413;50.782;7.152;2023-03-01T12:23:25;11.65;;;6.68;;
27408;SDS011;20413;50.782;7.152;2023-03-01T12:26:00;13.50;;;6.85;;
27408;SDS011;20413;50.782;7.152;2023-03-01T12:28:40;11.32;;;7.18;;
27408;SDS011;20413;50.782;7.152;2023-03-01T12:34:37;12.32;;;6.38;;
27408;SDS011;20413;50.782;7.152;2023-03-01T12:36:47;9.48;;;6.18;;
27408;SDS011;20413;50.782;7.152;2023-03-01T12:39:40;12.27;;;6.88;;
27408;SDS011;20413;50.782;7.152;2023-03-01T12:47:07;13.68;;;6.75;;
27408;SDS011;20413;50.782;7.152;2023-03-01T12:49:43;12.30;;;7.32;;
27408;SDS011;20413;50.782;7.152;2023-03-01T12:52:14;12.32;;;6.80;;
27408;SDS011;20413;50.782;7.152;2023-03-01T12:54:43;8.90;;;6.20;;
27408;SDS011;20413;50.782;7.152;2023-03-01T12:57:18;8.20;;;5.90;;
27408;SDS011;20413;50.782;7.152;2023-03-01T13:00:06;8.07;;;5.90;;
27408;SDS011;20413;50.782;7.152;2023-03-01T13:05:10;10.50;;;5.45;;
27408;SDS011;20413;50.782;7.152;2023-03-01T13:17:53;6.47;;;5.38;;
27408;SDS011;20413;50.782;7.152;2023-03-01T13:20:21;6.60;;;5.90;;
27408;SDS011;20413;50.782;7.152;2023-03-01T13:22:49;7.28;;;5.35;;
27408;SDS011;20413;50.782;7.152;2023-03-01T13:25:25;8.45;;;5.43;;
27408;SDS011;20413;50.782;7.152;2023-03-01T13:27:51;8.52;;;6.10;;
27408;SDS011;20413;50.782;7.152;2023-03-01T13:30:39;7.60;;;5.35;;
27408;SDS011;20413;50.782;7.152;2023-03-01T13:34:06;5.60;;;4.53;;
27408;SDS011;20413;50.782;7.152;2023-03-01T13:36:01;8.13;;;5.28;;
27408;SDS011;20413;50.782;7.152;2023-03-01T13:41:03;8.00;;;5.60;;
27408;SDS011;20413;50.782;7.152;2023-03-01T13:43:47;7.38;;;5.90;;
27408;SDS011;20413;50.782;7.152;2023-03-01T13:46:18;8.52;;;5.90;;
27408;SDS011;20413;50.782;7.152;2023-03-01T13:48:47;10.70;;;5.63;;
27408;SDS011;20413;50.782;7.152;2023-03-01T13:51:14;8.75;;;5.65;;
27408;SDS011;20413;50.782;7.152;2023-03-01T13:53:44;7.28;;;5.75;;
27408;SDS011;20413;50.782;7.152;2023-03-01T13:56:12;9.05;;;5.57;;
27408;SDS011;20413;50.782;7.152;2023-03-01T14:03:49;7.07;;;4.85;;
27408;SDS011;20413;50.782;7.152;2023-03-01T14:06:16;8.10;;;5.50;;
27408;SDS011;20413;50.782;7.152;2023-03-01T14:08:43;6.45;;;5.22;;
27408;SDS011;20413;50.782;7.152;2023-03-01T14:21:35;6.75;;;4.97;;
27408;SDS011;20413;50.782;7.152;2023-03-01T14:24:01;7.28;;;5.20;;
27408;SDS011;20413;50.782;7.152;2023-03-01T14:26:28;5.93;;;4.55;;
27408;SDS011;20413;50.782;7.152;2023-03-01T14:28:55;7.40;;;5.35;;
27408;SDS011;20413;50.782;7.152;2023-03-01T14:31:31;7.00;;;4.97;;
27408;SDS011;20413;50.782;7.152;2023-03-01T14:33:58;6.15;;;5.25;;
27408;SDS011;20413;50.782;7.152;2023-03-01T14:36:34;5.82;;;4.55;;
27408;SDS011;20413;50.782;7.152;2023-03-01T14:39:00;6.53;;;4.88;;
27408;SDS011;20413;50.782;7.152;2023-03-01T14:41:31;5.75;;;5.07;;
27408;SDS011;20413;50.782;7.152;2023-03-01T14:43:59;6.90;;;5.45;;
27408;SDS011;20413;50.782;7.152;2023-03-01T14:46:35;8.50;;;5.65;;
27408;SDS011;20413;50.782;7.152;2023-03-01T14:49:12;5.03;;;4.38;;
27408;SDS011;20413;50.782;7.152;2023-03-01T14:51:41;7.57;;;4.68;;
27408;SDS011;20413;50.782;7.152;2023-03-01T14:54:21;6.80;;;5.03;;
27408;SDS011;20413;50.782;7.152;2023-03-01T14:56:49;5.03;;;4.05;;
27408;SDS011;20413;50.782;7.152;2023-03-01T14:59:18;6.50;;;4.32;;
27408;SDS011;20413;50.782;7.152;2023-03-01T15:01:45;13.07;;;6.93;;
27408;SDS011;20413;50.782;7.152;2023-03-01T15:04:12;9.48;;;5.55;;
27408;SDS011;20413;50.782;7.152;2023-03-01T15:06:38;5.07;;;3.90;;
27408;SDS011;20413;50.782;7.152;2023-03-01T15:09:04;6.97;;;4.28;;
27408;SDS011;20413;50.782;7.152;2023-03-01T15:11:31;8.20;;;5.32;;
27408;SDS011;20413;50.782;7.152;2023-03-01T15:13:59;15.00;;;11.25;;
27408;SDS011;20413;50.782;7.152;2023-03-01T15:16:29;8.48;;;5.60;;
27408;SDS011;20413;50.782;7.152;2023-03-01T15:19:06;6.72;;;4.70;;
27408;SDS011;20413;50.782;7.152;2023-03-01T15:21:33;6.95;;;4.78;;
27408;SDS011;20413;50.782;7.152;2023-03-01T15:26:45;6.63;;;4.60;;
27408;SDS011;20413;50.782;7.152;2023-03-01T15:29:18;6.83;;;5.20;;
27408;SDS011;20413;50.782;7.152;2023-03-01T15:31:53;6.85;;;4.43;;
27408;SDS011;20413;50.782;7.152;2023-03-01T15:34:28;10.57;;;5.50;;
27408;SDS011;20413;50.782;7.152;2023-03-01T15:36:55;3.95;;;3.30;;
27408;SDS011;20413;50.782;7.152;2023-03-01T15:39:33;5.43;;;3.72;;
27408;SDS011;20413;50.782;7.152;2023-03-01T15:42:07;5.75;;;4.05;;
27408;SDS011;20413;50.782;7.152;2023-03-01T15:44:34;6.97;;;4.40;;
27408;SDS011;20413;50.782;7.152;2023-03-01T15:47:01;7.28;;;4.60;;
27408;SDS011;20413;50.782;7.152;2023-03-01T15:49:35;6.60;;;5.00;;
27408;SDS011;20413;50.782;7.152;2023-03-01T15:52:04;6.30;;;4.63;;
27408;SDS011;20413;50.782;7.152;2023-03-01T15:54:31;7.00;;;4.88;;
27408;SDS011;20413;50.782;7.152;2023-03-01T15:56:57;7.50;;;5.13;;
27408;SDS011;20413;50.782;7.152;2023-03-01T15:59:23;7.68;;;5.40;;
27408;SDS011;20413;50.782;7.152;2023-03-01T16:01:49;8.23;;;4.90;;
27408;SDS011;20413;50.782;7.152;2023-03-01T16:04:16;8.85;;;4.68;;
27408;SDS011;20413;50.782;7.152;2023-03-01T16:06:49;8.15;;;5.28;;
27408;SDS011;20413;50.782;7.152;2023-03-01T16:09:19;8.30;;;5.28;;
27408;SDS011;20413;50.782;7.152;2023-03-01T16:11:45;6.50;;;4.85;;
27408;SDS011;20413;50.782;7.152;2023-03-01T16:14:11;10.25;;;5.93;;
27408;SDS011;20413;50.782;7.152;2023-03-01T16:16:37;7.20;;;5.00;;
27408;SDS011;20413;50.782;7.152;2023-03-01T16:19:03;8.93;;;5.88;;
27408;SDS011;20413;50.782;7.152;2023-03-01T16:21:29;10.77;;;5.60;;